aviador You're here:

SCVM Decoded Metar

in
Report Time2017-06-25 20:00:00
UTC Time2017-06-25 20:50:18
Flight Rules lifr LIFR
Wind340° at 20 kt
W.Decomp.*RWY 05: 6.8 kt HW 18.8 kt LCW
W.Rank340° ranks 4
Current wind is above 340° avg. (7.1)
Visibility0300 m
Phenomena:Heavy Rain
Clouds:Overcast 001 Hf
Expected CloudBase > 400 ft AGL from Temp-Dew spread
Ceiling100 ft
Temp13°C
Dew Point12°C (94% RH)
AAT6.4°C
QNH1013 hPa
Raw Report
METAR SCVM 252000Z 34020KT 0300 +RA OVC001 13/12 Q1013=

Extra information for SCVM:More info

Social comments